Time;durP1;ratioP1;P1;durP2;ratioP2;P2;SDS_P1;SDS_P2;PMS_P1;PMS_P2;Temp;Humidity;BMP_temperature;BMP_pressure;BME280_temperature;BME280_humidity;BME280_pressure;Samples;Min_cycle;Max_cycle;Signal;HPM_P1;HPM_P2
2022/09/22 06:25:38;;;;;;;;;42.00;42.00;;;;;;;;6207940;22;46556;-93
2022/09/22 06:28:04;;;;;;;;;0.00;0.00;;;;;;;;6185657;22;45440;-92
2022/09/22 06:30:34;;;;;;;;;0.00;0.00;;;;;;;;6184871;22;47610;-94
2022/09/22 06:32:59;;;;;;;;;0.00;0.00;;;;;;;;6185914;22;45283;-94
2022/09/22 06:35:27;;;;;;;;;0.00;0.00;;;;;;;;6184140;22;45304;-91
2022/09/22 06:37:55;;;;;;;;;0.00;0.00;;;;;;;;6213055;22;45404;-88
2022/09/22 06:40:21;;;;;;;;;0.00;0.00;;;;;;;;6185191;22;48060;-88
2022/09/22 06:42:48;;;;;;;;;0.00;0.00;;;;;;;;6186952;22;45321;-88
2022/09/22 06:45:13;;;;;;;;;0.00;0.00;;;;;;;;6183486;22;45348;-90
2022/09/22 06:47:39;;;;;;;;;0.00;0.00;;;;;;;;6184372;22;45209;-87
2022/09/22 06:50:08;;;;;;;;;0.00;0.00;;;;;;;;6186309;22;47340;-95
2022/09/22 06:52:35;;;;;;;;;0.00;0.00;;;;;;;;6219397;22;45323;-95
2022/09/22 06:55:00;;;;;;;;;0.00;0.00;;;;;;;;6191076;22;45371;-95
2022/09/22 06:57:31;;;;;;;;;0.00;0.00;;;;;;;;6218188;22;45464;-96
2022/09/22 07:00:00;;;;;;;;;0.00;0.00;;;;;;;;6215963;22;46323;-95
2022/09/22 07:02:27;;;;;;;;;0.00;0.00;;;;;;;;6188647;22;45542;-92
2022/09/22 07:04:54;;;;;;;;;0.00;0.00;;;;;;;;6196315;22;45205;-91
2022/09/22 07:07:19;;;;;;;;;0.00;0.00;;;;;;;;6217935;22;45506;-91
2022/09/22 07:09:45;;;;;;;;;0.00;0.00;;;;;;;;6220307;22;47456;-87
2022/09/22 07:12:10;;;;;;;;;0.00;0.00;;;;;;;;6188799;22;45840;-96
2022/09/22 07:14:35;;;;;;;;;0.00;0.00;;;;;;;;6220717;22;45130;-95
2022/09/22 07:17:00;;;;;;;;;0.00;0.00;;;;;;;;6215125;22;45425;-91
2022/09/22 07:19:25;;;;;;;;;0.00;0.00;;;;;;;;6186447;22;48194;-93
2022/09/22 07:21:50;;;;;;;;;0.00;0.00;;;;;;;;6210685;22;45322;-92
2022/09/22 07:24:16;;;;;;;;;0.00;0.00;;;;;;;;6184330;22;45268;-93
2022/09/22 07:26:42;;;;;;;;;0.00;0.00;;;;;;;;6196681;22;45621;-93
2022/09/22 07:29:10;;;;;;;;;0.00;0.00;;;;;;;;6170797;22;47845;-94
2022/09/22 07:31:35;;;;;;;;;0.00;0.00;;;;;;;;6166083;22;45434;-95
2022/09/22 07:34:01;;;;;;;;;0.00;0.00;;;;;;;;6168483;22;45459;-91
2022/09/22 07:36:27;;;;;;;;;0.00;0.00;;;;;;;;6201996;22;45600;-90
2022/09/22 07:38:53;;;;;;;;;0.00;0.00;;;;;;;;6194691;22;45713;-91
2022/09/22 07:41:26;;;;;;;;;0.00;0.00;;;;;;;;6197878;22;45694;-94
2022/09/22 07:43:52;;;;;;;;;0.00;0.00;;;;;;;;6199986;22;45494;-93
2022/09/22 07:46:18;;;;;;;;;0.00;0.00;;;;;;;;6177625;22;45322;-93
2022/09/22 07:48:45;;;;;;;;;0.00;0.00;;;;;;;;6185105;22;47022;-94
2022/09/22 07:51:18;;;;;;;;;0.00;0.00;;;;;;;;6213225;22;45287;-93
2022/09/22 07:53:44;;;;;;;;;0.00;0.00;;;;;;;;6214822;22;45260;-94
2022/09/22 07:56:12;;;;;;;;;0.00;0.00;;;;;;;;6191991;22;45527;-94
2022/09/22 07:58:44;;;;;;;;;0.00;0.00;;;;;;;;6185643;22;47480;-94
2022/09/22 08:01:10;;;;;;;;;0.00;0.00;;;;;;;;6210282;22;45302;-93
2022/09/22 08:03:36;;;;;;;;;0.00;0.00;;;;;;;;6185559;22;45310;-93
2022/09/22 08:06:10;;;;;;;;;0.00;0.00;;;;;;;;6185115;22;45406;-95
2022/09/22 08:08:55;;;;;;;;;0.00;0.00;;;;;;;;6186060;22;47904;-95
2022/09/22 08:11:21;;;;;;;;;0.00;0.00;;;;;;;;6212252;22;45514;-95
2022/09/22 08:13:49;;;;;;;;;0.00;0.00;;;;;;;;6187282;22;45261;-95
2022/09/22 08:16:17;;;;;;;;;0.00;0.00;;;;;;;;6218091;22;45342;-94
2022/09/22 08:18:42;;;;;;;;;0.00;0.00;;;;;;;;6221692;22;45385;-96
2022/09/22 08:21:07;;;;;;;;;0.00;0.00;;;;;;;;6196684;22;45355;-94
2022/09/22 08:23:33;;;;;;;;;0.00;0.00;;;;;;;;6194977;22;45300;-94
2022/09/22 08:26:02;;;;;;;;;0.00;0.00;;;;;;;;6217933;22;45668;-93
2022/09/22 08:28:27;;;;;;;;;0.00;0.00;;;;;;;;6187697;22;47300;-94
2022/09/22 08:30:53;;;;;;;;;0.00;0.00;;;;;;;;6183710;22;45781;-94
2022/09/22 08:33:18;;;;;;;;;0.00;0.00;;;;;;;;6212183;22;45824;-94
2022/09/22 08:35:52;;;;;;;;;0.00;0.00;;;;;;;;6185029;22;45513;-93
2022/09/22 08:38:17;;;;;;;;;0.00;0.00;;;;;;;;6184163;22;47360;-94
2022/09/22 08:40:46;;;;;;;;;0.00;0.00;;;;;;;;6184858;22;45330;-94
2022/09/22 08:43:12;;;;;;;;;0.00;0.00;;;;;;;;6184882;22;45364;-94
2022/09/22 08:45:39;;;;;;;;;0.00;0.00;;;;;;;;6184707;22;45253;-94
2022/09/22 08:53:56;;;;;;;;;0.00;0.00;;;;;;;;6212731;22;45394;-96
2022/09/22 08:56:29;;;;;;;;;0.00;0.00;;;;;;;;6185603;22;45642;-93
2022/09/22 08:59:13;;;;;;;;;0.00;0.00;;;;;;;;6186869;22;47435;-95
2022/09/22 09:01:41;;;;;;;;;0.00;0.00;;;;;;;;6184162;22;45360;-94
2022/09/22 09:04:10;;;;;;;;;0.00;0.00;;;;;;;;6212789;22;45486;-92
2022/09/22 09:07:07;;;;;;;;;0.00;0.00;;;;;;;;6209407;22;45410;-93
2022/09/22 09:09:51;;;;;;;;;0.00;0.00;;;;;;;;6060195;23;45928;-93
2022/09/22 09:12:34;;;;;;;;;0.00;0.00;;;;;;;;6060647;23;45523;-93
2022/09/22 09:15:18;;;;;;;;;0.00;0.00;;;;;;;;6060974;23;45446;-95
2022/09/22 09:17:46;;;;;;;;;0.00;0.00;;;;;;;;6062926;23;45365;-95
2022/09/22 09:20:11;;;;;;;;;0.00;0.00;;;;;;;;6062618;23;45373;-95
2022/09/22 09:22:40;;;;;;;;;0.00;0.00;;;;;;;;6066160;23;45289;-95
2022/09/22 09:25:14;;;;;;;;;0.00;0.00;;;;;;;;6041920;23;45589;-96
2022/09/22 09:27:42;;;;;;;;;0.00;0.00;;;;;;;;6043782;23;45204;-96
2022/09/22 09:30:14;;;;;;;;;0.00;0.00;;;;;;;;6068169;23;48370;-94
2022/09/22 09:32:49;;;;;;;;;0.00;0.00;;;;;;;;6043594;23;45205;-90
2022/09/22 09:35:15;;;;;;;;;0.00;0.00;;;;;;;;6063459;23;45282;-91
2022/09/22 09:37:45;;;;;;;;;0.00;0.00;;;;;;;;6041727;23;45222;-95
2022/09/22 09:40:16;;;;;;;;;0.00;0.00;;;;;;;;6042312;23;47286;-88
2022/09/22 09:42:41;;;;;;;;;0.00;0.00;;;;;;;;6065261;23;45214;-91
2022/09/22 09:45:11;;;;;;;;;0.00;0.00;;;;;;;;6141611;22;45248;-94
2022/09/22 09:47:39;;;;;;;;;0.00;0.00;;;;;;;;6191275;22;45392;-90
2022/09/22 09:50:05;;;;;;;;;0.00;0.00;;;;;;;;6211955;22;45254;-88
2022/09/22 09:52:30;;;;;;;;;0.00;0.00;;;;;;;;6211281;22;45332;-92
2022/09/22 09:54:55;;;;;;;;;0.00;0.00;;;;;;;;6185551;22;45355;-91
2022/09/22 09:57:21;;;;;;;;;0.00;0.00;;;;;;;;6184662;22;45363;-88
2022/09/22 10:02:31;;;;;;;;;0.00;0.00;;;;;;;;6212557;22;45327;-91
2022/09/22 10:05:01;;;;;;;;;0.00;0.00;;;;;;;;6218855;22;45478;-91
2022/09/22 10:07:28;;;;;;;;;0.00;0.00;;;;;;;;6186703;22;45618;-90
2022/09/22 10:09:53;;;;;;;;;0.00;0.00;;;;;;;;6216996;22;45396;-90
2022/09/22 10:12:26;;;;;;;;;0.00;0.00;;;;;;;;6216112;22;45233;-91
2022/09/22 10:14:54;;;;;;;;;0.00;0.00;;;;;;;;6211316;22;45659;-91
2022/09/22 10:17:20;;;;;;;;;0.00;0.00;;;;;;;;6191762;22;45699;-96
2022/09/22 10:19:46;;;;;;;;;0.00;0.00;;;;;;;;6184034;22;45508;-91
2022/09/22 10:22:15;;;;;;;;;0.00;0.00;;;;;;;;6185341;22;45652;-91
2022/09/22 10:24:50;;;;;;;;;0.00;0.00;;;;;;;;6184905;22;45513;-92
2022/09/22 10:27:19;;;;;;;;;0.00;0.00;;;;;;;;6185713;22;45517;-92
2022/09/22 10:29:44;;;;;;;;;0.00;0.00;;;;;;;;6185708;22;47341;-91
2022/09/22 10:32:16;;;;;;;;;0.00;0.00;;;;;;;;6213297;22;45637;-94
2022/09/22 10:34:46;;;;;;;;;0.00;0.00;;;;;;;;6190071;22;45457;-96
2022/09/22 10:37:12;;;;;;;;;0.00;0.00;;;;;;;;6188001;22;45200;-90
2022/09/22 10:39:44;;;;;;;;;0.00;0.00;;;;;;;;6216400;22;46801;-95
2022/09/22 10:42:24;;;;;;;;;0.00;0.00;;;;;;;;6224205;22;45185;-95
2022/09/22 10:44:50;;;;;;;;;0.00;0.00;;;;;;;;6202810;22;45449;-96
2022/09/22 10:47:30;;;;;;;;;0.00;0.00;;;;;;;;6203343;22;45341;-96
2022/09/22 10:50:08;;;;;;;;;0.00;0.00;;;;;;;;6201001;22;46904;-96
2022/09/22 10:52:34;;;;;;;;;0.00;0.00;;;;;;;;6218800;22;45173;-93
2022/09/22 10:55:02;;;;;;;;;0.00;0.00;;;;;;;;6211802;22;45325;-92
2022/09/22 10:57:34;;;;;;;;;0.00;0.00;;;;;;;;6212651;22;45543;-95
2022/09/22 11:00:09;;;;;;;;;0.00;0.00;;;;;;;;6215935;22;45416;-95
2022/09/22 11:12:15;;;;;;;;;0.00;0.00;;;;;;;;6184235;22;46298;-95
2022/09/22 11:14:06;;;;;;;;;0.00;0.00;;;;;;;;6184937;23;45555;-95
2022/09/22 11:16:33;;;;;;;;;0.00;0.00;;;;;;;;6181680;23;45439;-94
2022/09/22 11:19:01;;;;;;;;;0.00;0.00;;;;;;;;6183654;23;45346;-95
2022/09/22 11:21:30;;;;;;;;;0.00;0.00;;;;;;;;6198501;22;46303;-95
2022/09/22 11:24:25;;;;;;;;;0.00;0.00;;;;;;;;6186293;23;45423;-94
2022/09/22 11:26:55;;;;;;;;;0.00;0.00;;;;;;;;6164066;22;45338;-92
2022/09/22 11:29:40;;;;;;;;;0.00;0.00;;;;;;;;6188476;22;45294;-90
2022/09/22 11:35:11;;;;;;;;;0.00;0.00;;;;;;;;6219212;22;45172;-94
2022/09/22 11:37:57;;;;;;;;;0.00;0.00;;;;;;;;6183404;23;45375;-95
2022/09/22 11:40:31;;;;;;;;;0.00;0.00;;;;;;;;6192406;23;45398;-96
2022/09/22 11:43:12;;;;;;;;;0.00;0.00;;;;;;;;6191071;23;47565;-96
2022/09/22 11:45:40;;;;;;;;;0.00;0.00;;;;;;;;6201152;22;44880;-95
2022/09/22 11:48:28;;;;;;;;;0.00;0.00;;;;;;;;6192022;23;45218;-89
2022/09/22 11:51:03;;;;;;;;;0.00;0.00;;;;;;;;6185767;23;45334;-96
2022/09/22 11:53:31;;;;;;;;;0.00;0.00;;;;;;;;6192037;23;47313;-94
2022/09/22 11:55:57;;;;;;;;;0.00;0.00;;;;;;;;6182863;23;45530;-95
2022/09/22 11:58:25;;;;;;;;;0.00;0.00;;;;;;;;6183646;23;45321;-96
2022/09/22 12:00:53;;;;;;;;;0.00;0.00;;;;;;;;6185343;23;45445;-95
2022/09/22 12:03:22;;;;;;;;;0.00;0.00;;;;;;;;6180252;23;47116;-96
2022/09/22 12:05:47;;;;;;;;;0.00;0.00;;;;;;;;6182157;23;45453;-96
2022/09/22 12:08:19;;;;;;;;;0.00;0.00;;;;;;;;6182383;23;45318;-96
2022/09/22 12:10:45;;;;;;;;;0.00;0.00;;;;;;;;6181162;23;45442;-95
2022/09/22 12:13:11;;;;;;;;;0.00;0.00;;;;;;;;6180889;23;46909;-96
2022/09/22 12:15:42;;;;;;;;;0.00;0.00;;;;;;;;6184374;23;45235;-96
2022/09/22 12:18:22;;;;;;;;;0.00;0.00;;;;;;;;6190587;23;45947;-96
2022/09/22 12:20:53;;;;;;;;;0.00;0.00;;;;;;;;6193427;23;45452;-96
2022/09/22 12:23:31;;;;;;;;;0.00;0.00;;;;;;;;6194098;23;46593;-96
2022/09/22 12:25:58;;;;;;;;;0.00;0.00;;;;;;;;6189612;23;45315;-96
2022/09/22 12:28:26;;;;;;;;;0.00;0.00;;;;;;;;6193735;23;45299;-96
2022/09/22 12:31:14;;;;;;;;;0.00;0.00;;;;;;;;6191609;23;45260;-96
2022/09/22 12:33:59;;;;;;;;;0.00;0.00;;;;;;;;6191432;23;48001;-96
2022/09/22 12:36:32;;;;;;;;;0.00;0.00;;;;;;;;6218847;22;45216;-96
2022/09/22 12:39:10;;;;;;;;;0.00;0.00;;;;;;;;6180649;23;45399;-95
2022/09/22 12:41:48;;;;;;;;;0.00;0.00;;;;;;;;6184595;23;45422;-96
2022/09/22 12:44:39;;;;;;;;;0.00;0.00;;;;;;;;6182585;23;47038;-96
2022/09/22 12:47:06;;;;;;;;;0.00;0.00;;;;;;;;6092219;23;45326;-96
2022/09/22 12:49:32;;;;;;;;;0.00;0.00;;;;;;;;6093498;23;45249;-96
2022/09/22 12:59:38;;;;;;;;;0.00;0.00;;;;;;;;6195392;22;47110;-95
2022/09/22 13:02:16;;;;;;;;;0.00;0.00;;;;;;;;6191137;22;45565;-96
2022/09/22 13:05:03;;;;;;;;;0.00;0.00;;;;;;;;6216461;22;45353;-96
2022/09/22 13:07:37;;;;;;;;;0.00;0.00;;;;;;;;6063677;23;45859;-95
2022/09/22 13:10:21;;;;;;;;;0.00;0.00;;;;;;;;6038317;23;45354;-96
2022/09/22 13:13:11;;;;;;;;;0.00;0.00;;;;;;;;6038486;23;45485;-96
2022/09/22 13:15:36;;;;;;;;;0.00;0.00;;;;;;;;6037627;23;47370;-96
2022/09/22 13:18:01;;;;;;;;;0.00;0.00;;;;;;;;6033963;23;45295;-95
2022/09/22 13:20:26;;;;;;;;;0.00;0.00;;;;;;;;6065196;23;45565;-96
2022/09/22 13:22:54;;;;;;;;;0.00;0.00;;;;;;;;6046574;23;45258;-91
2022/09/22 13:25:19;;;;;;;;;0.00;0.00;;;;;;;;6055229;23;47464;-91
2022/09/22 13:27:45;;;;;;;;;0.00;0.00;;;;;;;;6055347;23;45585;-92
2022/09/22 13:30:13;;;;;;;;;0.00;0.00;;;;;;;;6058735;23;45418;-92
2022/09/22 13:32:45;;;;;;;;;0.00;0.00;;;;;;;;6059376;23;45883;-91
2022/09/22 13:35:22;;;;;;;;;0.00;0.00;;;;;;;;6057338;23;48409;-88
2022/09/22 13:37:47;;;;;;;;;0.00;0.00;;;;;;;;6056417;23;46201;-91
2022/09/22 13:40:13;;;;;;;;;0.00;0.00;;;;;;;;6058304;23;45697;-92
2022/09/22 13:42:40;;;;;;;;;0.00;0.00;;;;;;;;6057579;23;45316;-92
2022/09/22 13:45:09;;;;;;;;;0.00;0.00;;;;;;;;6166426;22;45488;-92
2022/09/22 13:47:34;;;;;;;;;0.00;0.00;;;;;;;;6209387;22;45251;-91
2022/09/22 13:50:03;;;;;;;;;0.00;0.00;;;;;;;;6209722;22;45421;-92
2022/09/22 13:52:30;;;;;;;;;0.00;0.00;;;;;;;;6183192;22;45605;-92
2022/09/22 13:54:58;;;;;;;;;0.00;0.00;;;;;;;;6209678;22;45429;-92
2022/09/22 13:57:30;;;;;;;;;0.00;0.00;;;;;;;;6210230;22;45371;-92
2022/09/22 13:59:56;;;;;;;;;0.00;0.00;;;;;;;;6169532;23;45605;-91
2022/09/22 14:02:23;;;;;;;;;0.00;0.00;;;;;;;;6174367;23;45418;-91
2022/09/22 14:04:54;;;;;;;;;0.00;0.00;;;;;;;;6175127;23;46841;-92
2022/09/22 14:07:21;;;;;;;;;0.00;0.00;;;;;;;;6178513;23;45550;-92
2022/09/22 14:09:47;;;;;;;;;0.00;0.00;;;;;;;;6179197;23;45663;-93
2022/09/22 14:12:13;;;;;;;;;0.00;0.00;;;;;;;;6177965;23;45295;-92
2022/09/22 14:14:39;;;;;;;;;0.00;0.00;;;;;;;;6178898;23;48302;-91
2022/09/22 14:17:13;;;;;;;;;0.00;0.00;;;;;;;;6180354;22;45298;-94
2022/09/22 14:19:41;;;;;;;;;0.00;0.00;;;;;;;;6179073;23;45708;-95
2022/09/22 14:22:12;;;;;;;;;0.00;0.00;;;;;;;;6180269;23;45809;-92
2022/09/22 14:24:42;;;;;;;;;0.00;0.00;;;;;;;;6179347;23;47410;-95
2022/09/22 14:27:16;;;;;;;;;0.00;0.00;;;;;;;;6178463;23;45424;-93
2022/09/22 14:29:46;;;;;;;;;0.00;0.00;;;;;;;;6180639;23;45351;-93
2022/09/22 14:32:29;;;;;;;;;0.00;0.00;;;;;;;;6179352;22;45342;-92
2022/09/22 14:34:57;;;;;;;;;0.00;0.00;;;;;;;;6180407;23;45361;-92
2022/09/22 14:37:22;;;;;;;;;0.00;0.00;;;;;;;;6175512;23;45371;-93
2022/09/22 14:39:49;;;;;;;;;0.00;0.00;;;;;;;;6177547;23;45380;-92
2022/09/22 14:42:20;;;;;;;;;0.00;0.00;;;;;;;;6177963;23;45399;-92
2022/09/22 14:44:48;;;;;;;;;0.00;0.00;;;;;;;;6178625;23;48059;-93
2022/09/22 14:47:19;;;;;;;;;0.00;0.00;;;;;;;;6178250;23;45373;-92
2022/09/22 14:49:46;;;;;;;;;0.00;0.00;;;;;;;;6180337;23;45391;-92
2022/09/22 14:52:17;;;;;;;;;0.00;0.00;;;;;;;;6179199;23;45581;-92
2022/09/22 14:54:43;;;;;;;;;0.00;0.00;;;;;;;;6179140;23;48622;-93
2022/09/22 14:57:11;;;;;;;;;0.00;0.00;;;;;;;;6173778;23;45831;-92
2022/09/22 15:02:34;;;;;;;;;0.00;0.00;;;;;;;;6181114;23;45739;-94
2022/09/22 15:05:02;;;;;;;;;0.00;0.00;;;;;;;;6180562;23;48033;-94
2022/09/22 15:07:33;;;;;;;;;0.00;0.00;;;;;;;;6179700;23;45377;-95
2022/09/22 15:10:01;;;;;;;;;0.00;0.00;;;;;;;;6180688;23;45363;-95
2022/09/22 15:12:42;;;;;;;;;0.00;0.00;;;;;;;;6175292;23;45719;-94
2022/09/22 15:15:28;;;;;;;;;0.00;0.00;;;;;;;;6205035;22;48366;-95
2022/09/22 15:18:12;;;;;;;;;0.00;0.00;;;;;;;;6181137;23;45670;-94
2022/09/22 15:21:04;;;;;;;;;0.00;0.00;;;;;;;;6206090;22;45355;-94
2022/09/22 15:23:34;;;;;;;;;0.00;0.00;;;;;;;;6199014;22;45307;-93
2022/09/22 15:26:03;;;;;;;;;0.00;0.00;;;;;;;;6182417;23;45280;-93
2022/09/22 15:28:29;;;;;;;;;0.00;0.00;;;;;;;;6185585;22;45364;-92
2022/09/22 15:30:56;;;;;;;;;0.00;0.00;;;;;;;;6184076;23;45458;-92
2022/09/22 15:33:21;;;;;;;;;0.00;0.00;;;;;;;;6187357;22;45558;-92
2022/09/22 15:35:48;;;;;;;;;0.00;0.00;;;;;;;;6186911;23;48145;-94
2022/09/22 15:38:18;;;;;;;;;0.00;0.00;;;;;;;;6209476;22;45347;-93
2022/09/22 15:40:44;;;;;;;;;0.00;0.00;;;;;;;;6185667;23;45323;-94
2022/09/22 15:43:14;;;;;;;;;0.00;0.00;;;;;;;;6211648;22;45305;-96
2022/09/22 15:45:46;;;;;;;;;0.00;0.00;;;;;;;;6184115;23;45539;-93
2022/09/22 15:48:11;;;;;;;;;0.00;0.00;;;;;;;;6186122;23;45335;-94
2022/09/22 15:50:37;;;;;;;;;0.00;0.00;;;;;;;;6185971;23;45366;-94
2022/09/22 15:53:02;;;;;;;;;0.00;0.00;;;;;;;;6181636;23;45232;-95
2022/09/22 15:55:28;;;;;;;;;0.00;0.00;;;;;;;;6180374;23;46565;-94
2022/09/22 15:57:54;;;;;;;;;0.00;0.00;;;;;;;;6180826;23;46067;-92
2022/09/22 16:00:20;;;;;;;;;0.00;0.00;;;;;;;;6180599;23;45236;-94
2022/09/22 16:02:46;;;;;;;;;0.00;0.00;;;;;;;;6180973;23;45292;-93
2022/09/22 16:05:11;;;;;;;;;0.00;0.00;;;;;;;;6182260;23;46921;-93
2022/09/22 16:07:42;;;;;;;;;0.00;0.00;;;;;;;;6179916;23;45391;-93
2022/09/22 16:10:12;;;;;;;;;0.00;0.00;;;;;;;;6179763;23;45265;-91
2022/09/22 16:12:40;;;;;;;;;0.00;0.00;;;;;;;;6179327;23;45354;-92
2022/09/22 16:15:05;;;;;;;;;0.00;0.00;;;;;;;;6178283;23;48079;-93
2022/09/22 16:17:30;;;;;;;;;0.00;0.00;;;;;;;;6178939;23;45570;-93
2022/09/22 16:19:57;;;;;;;;;0.00;0.00;;;;;;;;6180269;23;45328;-95
2022/09/22 16:22:24;;;;;;;;;0.00;0.00;;;;;;;;6180589;23;45537;-93
2022/09/22 16:24:49;;;;;;;;;0.00;0.00;;;;;;;;6180088;23;47309;-94
2022/09/22 16:27:14;;;;;;;;;0.00;0.00;;;;;;;;6180706;23;45635;-94
2022/09/22 16:29:42;;;;;;;;;0.00;0.00;;;;;;;;6178864;23;45469;-93
2022/09/22 16:32:07;;;;;;;;;0.00;0.00;;;;;;;;6178019;23;45675;-92
2022/09/22 16:34:34;;;;;;;;;0.00;0.00;;;;;;;;6179581;23;46921;-92
2022/09/22 16:37:01;;;;;;;;;0.00;0.00;;;;;;;;6179088;23;45395;-93
2022/09/22 16:39:26;;;;;;;;;0.00;0.00;;;;;;;;6179551;23;45344;-93
2022/09/22 16:41:51;;;;;;;;;0.00;0.00;;;;;;;;6178217;23;45556;-92
2022/09/22 16:44:16;;;;;;;;;23.00;23.00;;;;;;;;6175758;23;46940;-94
2022/09/22 16:46:41;;;;;;;;;0.00;0.00;;;;;;;;6177028;23;45433;-93
2022/09/22 16:49:11;;;;;;;;;0.00;0.00;;;;;;;;6181291;23;45326;-92
2022/09/22 16:51:37;;;;;;;;;0.00;0.00;;;;;;;;6176803;23;45451;-91
2022/09/22 16:54:04;;;;;;;;;0.00;0.00;;;;;;;;6181200;23;45434;-92
2022/09/22 16:56:30;;;;;;;;;0.00;0.00;;;;;;;;6204290;22;45528;-91
2022/09/22 16:58:56;;;;;;;;;0.00;0.00;;;;;;;;6203420;22;45303;-93
2022/09/22 17:01:22;;;;;;;;;0.00;0.00;;;;;;;;6206228;22;45334;-94
2022/09/22 17:03:48;;;;;;;;;0.00;0.00;;;;;;;;6184340;22;48370;-94
2022/09/22 17:06:14;;;;;;;;;0.00;0.00;;;;;;;;6212495;22;45447;-96
2022/09/22 17:08:42;;;;;;;;;0.00;0.00;;;;;;;;6163409;22;45381;-94
2022/09/22 17:11:08;;;;;;;;;0.00;0.00;;;;;;;;6211979;22;45347;-92
2022/09/22 17:13:33;;;;;;;;;0.00;0.00;;;;;;;;6213066;22;48437;-94
2022/09/22 17:16:08;;;;;;;;;0.00;0.00;;;;;;;;6180239;22;45452;-88
2022/09/22 17:18:38;;;;;;;;;0.00;0.00;;;;;;;;6197699;22;46130;-96
2022/09/22 17:21:04;;;;;;;;;0.00;0.00;;;;;;;;6184511;23;45294;-91
2022/09/22 17:23:29;;;;;;;;;0.00;0.00;;;;;;;;6179495;23;47039;-96
2022/09/22 17:25:55;;;;;;;;;0.00;0.00;;;;;;;;6181011;23;45323;-94
2022/09/22 17:28:20;;;;;;;;;0.00;0.00;;;;;;;;6180595;23;45645;-93
2022/09/22 17:30:53;;;;;;;;;0.00;0.00;;;;;;;;6178723;23;45335;-95
2022/09/22 17:33:18;;;;;;;;;0.00;0.00;;;;;;;;6180441;23;48368;-96
2022/09/22 17:35:46;;;;;;;;;0.00;0.00;;;;;;;;6181595;23;45325;-95
2022/09/22 17:38:11;;;;;;;;;0.00;0.00;;;;;;;;6184815;23;45455;-94
2022/09/22 17:40:39;;;;;;;;;0.00;0.00;;;;;;;;6186122;23;45168;-96
2022/09/22 17:43:05;;;;;;;;;0.00;0.00;;;;;;;;6189326;22;47994;-94
2022/09/22 17:45:31;;;;;;;;;0.00;0.00;;;;;;;;6185887;22;45351;-95
2022/09/22 17:56:08;;;;;;;;;0.00;0.00;;;;;;;;6151937;23;45307;-94
2022/09/22 17:58:33;;;;;;;;;0.00;0.00;;;;;;;;6126163;23;45810;-96
2022/09/22 18:00:58;;;;;;;;;0.00;0.00;;;;;;;;6125744;23;45392;-96
2022/09/22 18:03:23;;;;;;;;;0.00;0.00;;;;;;;;6126290;23;46973;-92
2022/09/22 18:05:55;;;;;;;;;0.00;0.00;;;;;;;;6126158;23;45347;-93
2022/09/22 18:08:20;;;;;;;;;0.00;0.00;;;;;;;;6127528;23;45246;-93
2022/09/22 18:10:53;;;;;;;;;0.00;0.00;;;;;;;;6139272;23;45601;-96
2022/09/22 18:15:53;;;;;;;;;0.00;0.00;;;;;;;;6195149;22;45306;-96
2022/09/22 18:18:19;;;;;;;;;0.00;0.00;;;;;;;;6191189;22;45388;-96
2022/09/22 18:20:44;;;;;;;;;0.00;0.00;;;;;;;;6136056;23;45309;-96
2022/09/22 18:23:10;;;;;;;;;0.00;0.00;;;;;;;;6134150;23;46396;-94
2022/09/22 18:25:35;;;;;;;;;0.00;0.00;;;;;;;;6127872;23;45652;-96
2022/09/22 18:28:00;;;;;;;;;0.00;0.00;;;;;;;;6128381;23;45298;-95
2022/09/22 18:30:27;;;;;;;;;0.00;0.00;;;;;;;;6153283;23;45326;-96
2022/09/22 18:32:52;;;;;;;;;0.00;0.00;;;;;;;;6129816;23;48058;-96
2022/09/22 18:35:30;;;;;;;;;0.00;0.00;;;;;;;;6131895;23;45673;-96
2022/09/22 18:37:55;;;;;;;;;0.00;0.00;;;;;;;;6136811;23;45321;-93
2022/09/22 18:40:21;;;;;;;;;0.00;0.00;;;;;;;;6125139;23;45424;-93
2022/09/22 18:42:46;;;;;;;;;0.00;0.00;;;;;;;;6126500;23;46719;-95
2022/09/22 18:45:12;;;;;;;;;0.00;0.00;;;;;;;;6130891;23;45572;-96
2022/09/22 18:47:42;;;;;;;;;0.00;0.00;;;;;;;;6127716;23;45256;-90
2022/09/22 18:50:08;;;;;;;;;0.00;0.00;;;;;;;;6127233;23;45621;-94
2022/09/22 18:52:43;;;;;;;;;0.00;0.00;;;;;;;;6127765;23;47636;-96
2022/09/22 18:55:12;;;;;;;;;0.00;0.00;;;;;;;;6122816;23;45426;-90
2022/09/22 18:57:38;;;;;;;;;0.00;0.00;;;;;;;;6120613;23;45329;-91
2022/09/22 19:00:03;;;;;;;;;0.00;0.00;;;;;;;;6146919;23;45342;-91
2022/09/22 19:02:29;;;;;;;;;0.00;0.00;;;;;;;;6121592;23;47640;-91
2022/09/22 19:04:54;;;;;;;;;0.00;0.00;;;;;;;;6149677;23;45363;-91
2022/09/22 19:07:38;;;;;;;;;0.00;0.00;;;;;;;;6151201;23;45223;-89
2022/09/22 19:10:03;;;;;;;;;0.00;0.00;;;;;;;;6123277;23;45356;-91
2022/09/22 19:12:30;;;;;;;;;0.00;0.00;;;;;;;;6150585;23;46534;-90
2022/09/22 19:14:55;;;;;;;;;0.00;0.00;;;;;;;;6124062;23;45874;-90
2022/09/22 19:17:23;;;;;;;;;0.00;0.00;;;;;;;;6123570;23;45818;-89
2022/09/22 19:19:48;;;;;;;;;0.00;0.00;;;;;;;;6147074;23;45400;-90
2022/09/22 19:22:14;;;;;;;;;0.00;0.00;;;;;;;;6179217;23;46956;-91
2022/09/22 19:24:44;;;;;;;;;0.00;0.00;;;;;;;;6181044;23;45286;-90
2022/09/22 19:27:10;;;;;;;;;0.00;0.00;;;;;;;;6180520;23;45493;-89
2022/09/22 19:29:36;;;;;;;;;0.00;0.00;;;;;;;;6154205;23;45313;-89
2022/09/22 19:32:02;;;;;;;;;0.00;0.00;;;;;;;;6178808;23;46454;-90
2022/09/22 19:34:28;;;;;;;;;0.00;0.00;;;;;;;;6181082;23;45627;-91
2022/09/22 19:36:54;;;;;;;;;0.00;0.00;;;;;;;;6153697;23;45311;-91
2022/09/22 19:39:19;;;;;;;;;0.00;0.00;;;;;;;;6181039;23;45381;-91
2022/09/22 19:41:47;;;;;;;;;0.00;0.00;;;;;;;;6153359;23;46939;-93
2022/09/22 19:44:14;;;;;;;;;0.00;0.00;;;;;;;;6154056;23;45401;-93
2022/09/22 19:46:39;;;;;;;;;0.00;0.00;;;;;;;;6152542;23;45327;-92
2022/09/22 19:49:05;;;;;;;;;0.00;0.00;;;;;;;;6155273;23;45431;-92
2022/09/22 19:51:30;;;;;;;;;0.00;0.00;;;;;;;;6178505;23;47403;-91
2022/09/22 19:53:56;;;;;;;;;0.00;0.00;;;;;;;;6181084;23;45406;-93
2022/09/22 19:56:21;;;;;;;;;0.00;0.00;;;;;;;;6178722;23;45306;-92
2022/09/22 19:58:47;;;;;;;;;0.00;0.00;;;;;;;;6180818;23;45268;-92
2022/09/22 20:01:28;;;;;;;;;0.00;0.00;;;;;;;;6179335;23;45412;-91
2022/09/22 20:03:54;;;;;;;;;0.00;0.00;;;;;;;;6153639;23;45292;-91
2022/09/22 20:06:19;;;;;;;;;0.00;0.00;;;;;;;;6153882;23;45575;-92
2022/09/22 20:08:45;;;;;;;;;0.00;0.00;;;;;;;;6153566;23;45256;-90
2022/09/22 20:11:10;;;;;;;;;0.00;0.00;;;;;;;;6178629;23;47843;-90
2022/09/22 20:16:39;;;;;;;;;0.00;0.00;;;;;;;;6086218;23;45234;-91
2022/09/22 20:19:04;;;;;;;;;0.00;0.00;;;;;;;;6090139;23;45519;-89
2022/09/22 20:21:32;;;;;;;;;0.00;0.00;;;;;;;;6089322;23;45389;-89
2022/09/22 20:23:57;;;;;;;;;0.00;0.00;;;;;;;;6090612;23;45642;-89
2022/09/22 20:26:22;;;;;;;;;0.00;0.00;;;;;;;;6091133;23;45328;-90
